Time,TemperatureF,DewpointF,PressureIn,WindDirection,WindDirectionDegrees,WindSpeedMPH,WindSpeedGustMPH,Humidity,HourlyPrecipIn,Conditions,Clouds,dailyrainin,SolarRadiationWatts/m^2,SoftwareType,DateUTC
2013-08-05 00:02:00,53.0,52.0,-100.00,WNW,282,0.0,0.0,97,0.00,,,0.00,0.000000,,2013-08-05 04:02:00,
2013-08-05 00:32:00,52.0,51.0,-100.00,West,269,0.0,0.0,98,0.00,,,0.00,0.000000,,2013-08-05 04:32:00,
2013-08-05 00:43:00,52.0,51.0,-100.00,West,269,0.0,0.0,98,0.00,,,0.00,0.000000,,2013-08-05 04:43:00,
2013-08-05 00:52:00,52.0,51.0,-100.00,West,269,0.0,0.0,98,0.00,,,0.00,0.000000,,2013-08-05 04:52:00,
2013-08-05 01:02:00,52.0,51.0,-100.00,West,269,0.0,0.0,98,0.00,,,0.00,0.000000,,2013-08-05 05:02:00,
2013-08-05 01:32:00,51.0,50.0,-100.00,NNE,24,0.0,0.0,98,0.00,,,0.00,0.000000,,2013-08-05 05:32:00,
2013-08-05 01:43:00,51.0,50.0,-100.00,NNE,24,0.0,0.0,98,0.00,,,0.00,0.000000,,2013-08-05 05:43:00,
2013-08-05 01:53:00,51.0,50.0,-100.00,NNE,24,0.0,0.0,98,0.00,,,0.00,0.000000,,2013-08-05 05:53:00,
2013-08-05 02:02:00,51.0,50.0,-100.00,NNE,24,0.0,0.0,98,0.00,,,0.00,0.000000,,2013-08-05 06:02:00,
2013-08-05 02:32:00,50.0,49.0,-100.00,North,8,0.0,0.0,98,0.00,,,0.00,0.000000,,2013-08-05 06:32:00,
2013-08-05 02:42:00,50.0,49.0,-100.00,North,8,0.0,0.0,98,0.00,,,0.00,0.000000,,2013-08-05 06:42:00,
2013-08-05 02:52:00,50.0,49.0,-100.00,North,8,0.0,0.0,98,0.00,,,0.00,0.000000,,2013-08-05 06:52:00,
2013-08-05 03:02:00,50.0,49.0,-100.00,North,8,0.0,0.0,98,0.00,,,0.00,0.000000,,2013-08-05 07:02:00,
2013-08-05 03:33:00,47.0,46.0,-100.00,ESE,112,0.0,0.0,98,0.00,,,0.00,0.000000,,2013-08-05 07:33:00,
2013-08-05 03:43:00,47.0,46.0,-100.00,ESE,112,0.0,0.0,98,0.00,,,0.00,0.000000,,2013-08-05 07:43:00,
2013-08-05 03:53:00,47.0,46.0,-100.00,ESE,112,0.0,0.0,98,0.00,,,0.00,0.000000,,2013-08-05 07:53:00,
2013-08-05 04:02:00,47.0,46.0,-100.00,ESE,112,0.0,0.0,98,0.00,,,0.00,0.000000,,2013-08-05 08:02:00,
2013-08-05 04:07:00,45.0,44.0,-100.00,East,80,0.0,0.0,98,0.00,,,0.00,0.000000,,2013-08-05 08:07:00,
2013-08-05 04:34:00,45.0,44.0,-100.00,East,80,0.0,0.0,98,0.00,,,0.00,0.000000,,2013-08-05 08:34:00,
2013-08-05 05:07:00,44.0,43.0,-100.00,ENE,77,0.0,0.0,98,0.00,,,0.00,0.000000,,2013-08-05 09:07:00,
2013-08-05 05:49:00,44.0,43.0,-100.00,ENE,77,0.0,0.0,98,0.00,,,0.00,0.000000,,2013-08-05 09:49:00,
2013-08-05 06:07:00,43.0,42.0,-100.00,ENE,68,0.0,0.0,98,0.00,,,-99.99,0.000000,,2013-08-05 10:07:00,
2013-08-05 06:49:00,43.0,42.0,-100.00,ENE,68,0.0,0.0,98,0.00,,,-99.99,0.000000,,2013-08-05 10:49:00,
2013-08-05 07:07:00,45.0,44.0,-100.00,East,85,0.0,0.0,98,0.00,,,0.00,28.000000,,2013-08-05 11:07:00,
2013-08-05 07:38:00,45.0,44.0,-100.00,East,85,0.0,0.0,98,0.00,,,0.00,28.000000,,2013-08-05 11:38:00,
2013-08-05 07:54:00,45.0,44.0,-100.00,East,85,0.0,0.0,98,0.00,,,0.00,28.000000,,2013-08-05 11:54:00,
2013-08-05 08:34:00,54.0,53.0,-100.00,East,80,0.0,0.0,95,0.00,,,0.00,210.000000,,2013-08-05 12:34:00,
2013-08-05 08:53:00,54.0,53.0,-100.00,East,80,0.0,0.0,95,0.00,,,0.00,210.000000,,2013-08-05 12:53:00,
2013-08-05 09:02:00,54.0,53.0,-100.00,East,80,0.0,0.0,95,0.00,,,0.00,210.000000,,2013-08-05 13:02:00,
2013-08-05 09:47:00,62.0,52.0,-100.00,East,93,2.0,4.0,69,0.00,,,0.00,428.000000,,2013-08-05 13:47:00,
2013-08-05 09:54:00,62.0,52.0,-100.00,East,93,2.0,4.0,69,0.00,,,0.00,428.000000,,2013-08-05 13:54:00,
2013-08-05 10:06:00,62.0,52.0,-100.00,East,93,2.0,4.0,69,0.00,,,0.00,428.000000,,2013-08-05 14:06:00,
2013-08-05 10:07:00,64.0,48.0,-100.00,SW,220,2.0,4.0,56,0.00,,,0.00,645.000000,,2013-08-05 14:07:00,
2013-08-05 10:49:00,64.0,48.0,-100.00,SW,220,2.0,4.0,56,0.00,,,0.00,645.000000,,2013-08-05 14:49:00,
2013-08-05 11:07:00,68.0,46.0,-100.00,SE,138,2.0,5.0,45,0.00,,,0.00,845.000000,,2013-08-05 15:07:00,
2013-08-05 11:40:00,68.0,46.0,-100.00,SE,138,2.0,5.0,45,0.00,,,0.00,845.000000,,2013-08-05 15:40:00,
2013-08-05 11:51:00,68.0,46.0,-100.00,SE,138,2.0,5.0,45,0.00,,,0.00,845.000000,,2013-08-05 15:51:00,
2013-08-05 12:00:00,68.0,46.0,-100.00,SE,138,2.0,5.0,45,0.00,,,0.00,845.000000,,2013-08-05 16:00:00,
2013-08-05 12:07:00,70.0,45.0,-100.00,ESE,115,2.0,4.0,41,0.00,,,0.00,976.000000,,2013-08-05 16:07:00,
2013-08-05 12:34:00,70.0,45.0,-100.00,ESE,115,2.0,4.0,41,0.00,,,0.00,976.000000,,2013-08-05 16:34:00,
2013-08-05 12:45:00,70.0,45.0,-100.00,ESE,115,2.0,4.0,41,0.00,,,0.00,976.000000,,2013-08-05 16:45:00,
2013-08-05 13:00:00,70.0,45.0,-100.00,ESE,115,2.0,4.0,41,0.00,,,0.00,976.000000,,2013-08-05 17:00:00,
2013-08-05 13:07:00,71.0,48.0,-100.00,West,276,4.0,8.0,44,0.00,,,0.00,986.000000,,2013-08-05 17:07:00,
2013-08-05 13:39:00,71.0,48.0,-100.00,West,276,4.0,8.0,44,0.00,,,0.00,986.000000,,2013-08-05 17:39:00,
2013-08-05 13:50:00,71.0,48.0,-100.00,West,276,4.0,8.0,44,0.00,,,0.00,986.000000,,2013-08-05 17:50:00,
2013-08-05 14:00:00,71.0,48.0,-100.00,West,276,4.0,8.0,44,0.00,,,0.00,986.000000,,2013-08-05 18:00:00,
2013-08-05 14:40:00,72.0,49.0,-100.00,NNW,331,3.0,4.0,45,0.00,,,0.00,854.000000,,2013-08-05 18:40:00,
2013-08-05 14:54:00,72.0,49.0,-100.00,NNW,331,3.0,4.0,45,0.00,,,0.00,854.000000,,2013-08-05 18:54:00,
2013-08-05 15:05:00,72.0,49.0,-100.00,NNW,331,3.0,4.0,45,0.00,,,0.00,854.000000,,2013-08-05 19:05:00,
2013-08-05 15:07:00,71.0,47.0,-100.00,WSW,237,2.0,5.0,43,0.00,,,0.00,740.000000,,2013-08-05 19:07:00,
2013-08-05 15:39:00,71.0,47.0,-100.00,WSW,237,2.0,5.0,43,0.00,,,0.00,740.000000,,2013-08-05 19:39:00,
2013-08-05 15:54:00,71.0,47.0,-100.00,WSW,237,2.0,5.0,43,0.00,,,0.00,740.000000,,2013-08-05 19:54:00,
2013-08-05 16:07:00,70.0,48.0,-100.00,WSW,255,2.0,5.0,46,0.00,,,0.00,605.000000,,2013-08-05 20:07:00,
2013-08-05 16:48:00,70.0,48.0,-100.00,WSW,255,2.0,5.0,46,0.00,,,0.00,605.000000,,2013-08-05 20:48:00,
2013-08-05 17:48:00,70.0,53.0,-100.00,WSW,258,2.0,6.0,54,0.00,,,0.00,395.000000,,2013-08-05 21:48:00,
2013-08-05 17:54:00,70.0,53.0,-100.00,WSW,258,2.0,6.0,54,0.00,,,0.00,395.000000,,2013-08-05 21:54:00,
2013-08-05 18:05:00,70.0,53.0,-100.00,WSW,258,2.0,6.0,54,0.00,,,0.00,395.000000,,2013-08-05 22:05:00,
2013-08-05 18:07:00,67.0,53.0,-100.00,WSW,256,1.0,3.0,61,0.00,,,0.00,333.000000,,2013-08-05 22:07:00,
2013-08-05 18:38:00,67.0,53.0,-100.00,WSW,256,1.0,3.0,61,0.00,,,0.00,333.000000,,2013-08-05 22:38:00,
2013-08-05 18:45:00,67.0,53.0,-100.00,WSW,256,1.0,3.0,61,0.00,,,0.00,333.000000,,2013-08-05 22:45:00,
2013-08-05 18:53:00,67.0,53.0,-100.00,WSW,256,1.0,3.0,61,0.00,,,0.00,333.000000,,2013-08-05 22:53:00,
2013-08-05 19:33:00,65.0,53.0,-100.00,SW,233,0.0,0.0,66,0.00,,,0.00,151.000000,,2013-08-05 23:33:00,
2013-08-05 19:46:00,65.0,53.0,-100.00,SW,233,0.0,0.0,66,0.00,,,0.00,151.000000,,2013-08-05 23:46:00,
2013-08-05 20:02:00,65.0,53.0,-100.00,SW,233,0.0,0.0,66,0.00,,,0.00,151.000000,,2013-08-06 00:02:00,
2013-08-05 20:37:00,61.0,55.0,-100.00,SW,215,0.0,0.0,81,0.00,,,0.00,61.000000,,2013-08-06 00:37:00,
2013-08-05 20:47:00,61.0,55.0,-100.00,SW,215,0.0,0.0,81,0.00,,,0.00,61.000000,,2013-08-06 00:47:00,
2013-08-05 20:57:00,61.0,55.0,-100.00,SW,215,0.0,0.0,81,0.00,,,0.00,61.000000,,2013-08-06 00:57:00,
2013-08-05 21:43:00,54.0,52.0,-100.00,East,88,0.0,0.0,93,0.00,,,0.00,8.000000,,2013-08-06 01:43:00,
2013-08-05 21:53:00,54.0,52.0,-100.00,East,88,0.0,0.0,93,0.00,,,0.00,8.000000,,2013-08-06 01:53:00,
2013-08-05 22:02:00,54.0,52.0,-100.00,East,88,0.0,0.0,93,0.00,,,0.00,8.000000,,2013-08-06 02:02:00,
2013-08-05 22:33:00,52.0,51.0,-100.00,SE,127,0.0,0.0,97,0.00,,,0.00,0.000000,,2013-08-06 02:33:00,
2013-08-05 22:50:00,52.0,51.0,-100.00,SE,127,0.0,0.0,97,0.00,,,0.00,0.000000,,2013-08-06 02:50:00,
2013-08-05 23:02:00,52.0,51.0,-100.00,SE,127,0.0,0.0,97,0.00,,,0.00,0.000000,,2013-08-06 03:02:00,
2013-08-05 23:35:00,51.0,50.0,-100.00,East,83,0.0,0.0,98,0.00,,,0.00,0.000000,,2013-08-06 03:35:00,
2013-08-05 23:45:00,51.0,50.0,-100.00,East,83,0.0,0.0,98,0.00,,,0.00,0.000000,,2013-08-06 03:45:00,
2013-08-05 23:52:00,51.0,50.0,-100.00,East,83,0.0,0.0,98,0.00,,,0.00,0.000000,,2013-08-06 03:52:00,